Anchorage/Merrill Field, Alaska
Current Conditions -  °F | °C
As of 5:53 PM on Wednesday 22 Oct 2014 (Local Time) from PAMR Reporting Station
Clear Clear  
Wind Chill: 35°   Ceiling: Unl
Heat Index: 39°   Visibility: 10mi
Dew Point: 26°   Wind: 6mph
Humidity: 60%   Direction: 200°SSW
Pressure: 29.38"   Gusts: NA
Location:  61.21°N, 149.85°W
Report Text: PAMR 230153Z 20005KT 10SM CLR 04/M03 A2938 RMK AO2 SLP950 T00391033
Loading
Personal Weather Stations






























Interactive Weather Map
Tropical Storm Tracking
New forecast layout! Learn more

10-Day Weather Forecast

Advertisements
Track Severe Weather on mobile